createdAt,value
2023-04-15T00:01:00.028Z,3.80
2023-04-15T00:03:27.064Z,3.65
2023-04-15T00:05:54.143Z,3.67
2023-04-15T00:10:48.068Z,4.10
2023-04-15T00:13:15.529Z,4.45
2023-04-15T00:15:42.975Z,4.13
2023-04-15T00:18:09.912Z,3.97
2023-04-15T00:20:37.303Z,4.13
2023-04-15T00:25:31.280Z,3.55
2023-04-15T00:27:57.889Z,4.03
2023-04-15T00:35:22.853Z,3.70
2023-04-15T00:37:50.608Z,3.85
2023-04-15T00:40:18.919Z,3.80
2023-04-15T00:45:13.546Z,4.10
2023-04-15T00:50:11.151Z,4.07
2023-04-15T00:55:06.756Z,4.63
2023-04-15T00:57:33.713Z,4.07
2023-04-15T01:07:23.747Z,3.67
2023-04-15T01:09:50.989Z,4.07
2023-04-15T01:14:44.867Z,4.40
2023-04-15T01:17:11.635Z,4.38
2023-04-15T01:19:40.410Z,4.00
2023-04-15T01:22:08.029Z,4.07
2023-04-15T01:24:35.956Z,4.50
2023-04-15T01:29:31.169Z,4.32
2023-04-15T01:31:57.851Z,4.40
2023-04-15T01:34:26.500Z,5.00
2023-04-15T01:36:54.263Z,4.32
2023-04-15T01:39:21.887Z,4.60
2023-04-15T01:41:48.779Z,4.10
2023-04-15T01:44:16.615Z,3.92
2023-04-15T01:46:43.349Z,4.30
2023-04-15T01:49:10.185Z,4.00
2023-04-15T01:56:34.187Z,4.30
2023-04-15T02:01:28.304Z,3.60
2023-04-15T02:03:55.200Z,3.78
2023-04-15T02:06:21.932Z,3.75
2023-04-15T02:11:15.681Z,3.90
2023-04-15T02:16:16.816Z,3.50
2023-04-15T02:18:45.308Z,4.10
2023-04-15T02:21:11.978Z,3.80
2023-04-15T02:23:38.666Z,3.78
2023-04-15T02:28:32.257Z,3.53
2023-04-15T02:30:59.983Z,3.60
2023-04-15T02:33:26.661Z,3.78
2023-04-15T02:35:53.427Z,3.63
2023-04-15T02:38:20.281Z,3.83
2023-04-15T02:40:49.843Z,3.70
2023-04-15T02:43:17.459Z,3.92
2023-04-15T02:45:44.547Z,3.42
2023-04-15T02:48:11.681Z,3.25
2023-04-15T02:50:41.589Z,3.72
2023-04-15T02:53:10.696Z,3.70
2023-04-15T02:58:04.806Z,3.83
2023-04-15T03:00:31.813Z,3.50
2023-04-15T03:02:59.642Z,3.47
2023-04-15T03:05:26.804Z,3.55
2023-04-15T03:07:53.474Z,3.75
2023-04-15T03:10:21.434Z,4.00
2023-04-15T03:12:48.513Z,3.47
2023-04-15T03:15:20.623Z,3.63
2023-04-15T03:17:50.832Z,3.72
2023-04-15T03:22:44.744Z,4.28
2023-04-15T03:27:38.932Z,4.00
2023-04-15T03:30:06.811Z,3.83
2023-04-15T03:35:03.476Z,3.47
2023-04-15T03:37:30.120Z,4.00
2023-04-15T03:39:56.930Z,3.70
2023-04-15T03:42:23.660Z,4.05
2023-04-15T03:47:17.848Z,3.60
2023-04-15T03:49:44.571Z,4.05
2023-04-15T03:52:11.312Z,4.18
2023-04-15T03:54:37.966Z,4.13
2023-04-15T03:57:04.751Z,4.15
2023-04-15T03:59:31.576Z,4.22
2023-04-15T04:01:58.479Z,4.30
2023-04-15T04:09:19.150Z,4.18
2023-04-15T04:11:45.899Z,4.45
2023-04-15T04:19:06.624Z,5.00
2023-04-15T04:21:37.097Z,4.50
2023-04-15T04:24:03.850Z,4.50
2023-04-15T04:26:30.610Z,4.57
2023-04-15T04:28:57.356Z,4.57
2023-04-15T04:31:24.007Z,4.32
2023-04-15T04:33:50.722Z,4.50
2023-04-15T04:36:17.445Z,4.40
2023-04-15T04:38:44.497Z,4.65
2023-04-15T04:41:11.214Z,5.28
2023-04-15T04:43:37.919Z,4.72
2023-04-15T04:46:05.027Z,4.30
2023-04-15T04:48:31.774Z,4.03
2023-04-15T04:50:58.401Z,3.90
2023-04-15T04:53:25.092Z,4.35
2023-04-15T04:55:51.851Z,4.45
2023-04-15T04:58:18.498Z,4.40
2023-04-15T05:05:41.237Z,4.57
2023-04-15T05:08:07.995Z,4.10
2023-04-15T05:15:29.018Z,4.05
2023-04-15T05:17:55.824Z,3.85
2023-04-15T05:20:22.510Z,3.90
2023-04-15T05:22:49.212Z,4.10
2023-04-15T05:25:16.495Z,4.20
2023-04-15T05:27:43.260Z,4.20
2023-04-15T05:30:12.804Z,4.10
2023-04-15T05:35:08.275Z,3.70
2023-04-15T05:40:01.984Z,3.47
2023-04-15T05:42:28.684Z,3.60
2023-04-15T05:44:55.368Z,3.97
2023-04-15T05:47:22.104Z,3.90
2023-04-15T05:49:48.768Z,4.25
2023-04-15T05:52:15.671Z,3.95
2023-04-15T05:54:42.311Z,3.80
2023-04-15T05:57:09.034Z,3.17
2023-04-15T05:59:35.725Z,3.40
2023-04-15T06:04:30.676Z,3.20
2023-04-15T06:09:24.806Z,3.13
2023-04-15T06:11:51.976Z,3.45
2023-04-15T06:14:18.641Z,3.55
2023-04-15T06:16:45.338Z,3.47
2023-04-15T06:19:12.622Z,3.00
2023-04-15T06:24:06.381Z,3.00
2023-04-15T06:26:33.087Z,2.95
2023-04-15T06:28:59.928Z,2.83
2023-04-15T06:31:26.930Z,3.20
2023-04-15T06:33:53.633Z,3.10
2023-04-15T06:38:47.625Z,2.70
2023-04-15T06:43:43.566Z,2.60
2023-04-15T06:46:10.692Z,2.72
2023-04-15T06:51:04.618Z,3.13
2023-04-15T06:53:31.274Z,3.00
2023-04-15T06:55:57.868Z,2.85
2023-04-15T07:03:19.266Z,3.55
2023-04-15T07:08:12.997Z,2.80
2023-04-15T07:15:35.906Z,2.88
2023-04-15T07:18:02.698Z,2.80
2023-04-15T07:20:29.450Z,3.00
2023-04-15T07:22:56.139Z,3.00
2023-04-15T07:25:22.973Z,3.15
2023-04-15T07:27:49.742Z,3.08
2023-04-15T07:30:16.451Z,2.75
2023-04-15T07:32:43.230Z,2.58
2023-04-15T07:35:10.040Z,2.90
2023-04-15T07:37:36.762Z,2.40
2023-04-15T07:40:07.399Z,2.67
2023-04-15T07:42:34.526Z,2.85
2023-04-15T07:47:28.259Z,2.45
2023-04-15T07:49:54.936Z,2.80
2023-04-15T07:52:21.774Z,2.70
2023-04-15T07:54:48.513Z,3.05
2023-04-15T07:57:15.151Z,3.03
2023-04-15T07:59:41.986Z,2.78
2023-04-15T08:02:09.089Z,2.92
2023-04-15T08:04:36.217Z,2.90
2023-04-15T08:07:04.134Z,2.90
2023-04-15T08:09:30.854Z,2.97
2023-04-15T08:16:51.983Z,2.70
2023-04-15T08:19:18.687Z,2.55
2023-04-15T08:24:13.217Z,2.40
2023-04-15T08:26:42.934Z,2.20
2023-04-15T08:31:36.581Z,2.30
2023-04-15T08:34:05.791Z,2.10
2023-04-15T08:36:32.756Z,2.10
2023-04-15T08:39:01.647Z,3.22
2023-04-15T08:41:43.337Z,2.20
2023-04-15T08:46:37.919Z,2.00
2023-04-15T08:49:05.354Z,1.85
2023-04-15T08:51:32.405Z,1.85
2023-04-15T08:53:59.843Z,1.77
2023-04-15T08:56:29.578Z,2.03
2023-04-15T08:58:57.091Z,2.10
2023-04-15T09:01:23.893Z,2.10
2023-04-15T09:03:51.042Z,2.75
2023-04-15T09:06:18.133Z,3.20
2023-04-15T09:08:45.079Z,3.00
2023-04-15T09:11:12.467Z,2.67
2023-04-15T09:13:39.217Z,2.25
2023-04-15T09:16:06.395Z,2.40
2023-04-15T09:18:34.108Z,1.80
2023-04-15T09:21:09.079Z,1.83
2023-04-15T09:28:31.356Z,1.83
2023-04-15T09:31:01.988Z,2.40
2023-04-15T09:33:29.522Z,2.28
2023-04-15T09:35:57.290Z,1.90
2023-04-15T09:38:24.020Z,1.90
2023-04-15T09:40:53.594Z,1.60
2023-04-15T09:43:20.679Z,2.30
2023-04-15T09:45:49.373Z,2.00
2023-04-15T09:48:19.267Z,2.00
2023-04-15T09:50:46.045Z,1.80
2023-04-15T09:53:16.524Z,1.70
2023-04-15T09:58:31.948Z,1.95
2023-04-15T10:00:59.194Z,1.85
2023-04-15T10:03:27.716Z,2.00
2023-04-15T10:08:25.426Z,1.70
2023-04-15T10:10:52.646Z,1.67
2023-04-15T10:13:20.751Z,1.60
2023-04-15T10:15:51.834Z,1.45
2023-04-15T10:18:20.148Z,1.70
2023-04-15T10:23:15.655Z,1.75
2023-04-15T10:25:42.364Z,1.75
2023-04-15T10:28:09.353Z,1.80
2023-04-15T10:30:36.948Z,1.50
2023-04-15T10:33:05.487Z,2.03
2023-04-15T10:35:33.072Z,1.90
2023-04-15T10:38:00.045Z,1.58
2023-04-15T10:40:28.226Z,1.70
2023-04-15T10:42:56.036Z,1.60
2023-04-15T10:45:25.374Z,2.17
2023-04-15T10:47:53.297Z,1.70
2023-04-15T10:50:20.071Z,1.75
2023-04-15T10:52:46.749Z,2.38
2023-04-15T10:55:15.959Z,2.40
2023-04-15T10:57:43.381Z,1.88
2023-04-15T11:00:11.417Z,2.42
2023-04-15T11:02:57.430Z,1.67
2023-04-15T11:05:39.539Z,1.50
2023-04-15T11:08:06.204Z,1.60
2023-04-15T11:10:32.862Z,2.10
2023-04-15T11:15:47.433Z,1.92
2023-04-15T11:18:16.886Z,1.80
2023-04-15T11:23:15.279Z,2.10
2023-04-15T11:25:43.554Z,1.70
2023-04-15T11:28:11.386Z,1.50
2023-04-15T11:33:08.677Z,1.58
2023-04-15T11:35:36.306Z,1.60
2023-04-15T11:38:04.169Z,1.90
2023-04-15T11:43:09.472Z,2.08
2023-04-15T11:48:28.629Z,3.67
2023-04-15T11:50:56.349Z,2.50
2023-04-15T11:53:23.741Z,1.67
2023-04-15T11:55:51.262Z,2.00
2023-04-15T11:58:19.606Z,1.95
2023-04-15T12:00:49.523Z,1.63
2023-04-15T12:03:20.508Z,1.95
2023-04-15T12:06:08.895Z,2.47
2023-04-15T12:08:50.741Z,1.83
2023-04-15T12:11:17.938Z,2.10
2023-04-15T12:13:48.588Z,1.75
2023-04-15T12:18:53.264Z,3.15
2023-04-15T12:21:20.916Z,2.25
2023-04-15T12:26:29.133Z,1.88
2023-04-15T12:28:57.281Z,1.80
2023-04-15T12:31:24.326Z,1.95
2023-04-15T12:38:44.956Z,2.38
2023-04-15T12:41:11.726Z,1.98
2023-04-15T12:43:41.205Z,1.88
2023-04-15T12:46:08.915Z,2.40
2023-04-15T12:48:36.066Z,1.90
2023-04-15T12:51:05.160Z,1.95
2023-04-15T12:53:32.438Z,2.03
2023-04-15T12:58:26.074Z,3.00
2023-04-15T13:00:53.016Z,1.90
2023-04-15T13:05:46.828Z,2.40
2023-04-15T13:08:13.497Z,2.10
2023-04-15T13:10:40.257Z,2.38
2023-04-15T13:13:07.013Z,2.75
2023-04-15T13:18:01.284Z,2.63
2023-04-15T13:20:31.495Z,2.10
2023-04-15T13:22:58.143Z,1.90
2023-04-15T13:27:53.003Z,2.63
2023-04-15T13:30:20.175Z,3.20
2023-04-15T13:32:48.786Z,2.65
2023-04-15T13:35:17.172Z,2.63
2023-04-15T13:37:43.796Z,2.88
2023-04-15T13:40:11.001Z,3.03
2023-04-15T13:45:04.914Z,2.53
2023-04-15T13:47:31.720Z,2.20
2023-04-15T13:52:25.287Z,2.10
2023-04-15T13:55:07.257Z,2.38
2023-04-15T13:57:38.892Z,3.08
2023-04-15T14:00:07.635Z,4.50
2023-04-15T14:02:35.321Z,2.33
2023-04-15T14:05:03.635Z,3.00
2023-04-15T14:07:30.985Z,2.47
2023-04-15T14:09:57.635Z,2.30
2023-04-15T14:12:24.471Z,2.30
2023-04-15T14:14:51.406Z,2.40
2023-04-15T14:17:18.283Z,3.10
2023-04-15T14:19:44.974Z,3.00
2023-04-15T14:22:11.921Z,2.78
2023-04-15T14:24:38.595Z,2.40
2023-04-15T14:27:05.230Z,2.10
2023-04-15T14:29:31.868Z,2.50
2023-04-15T14:32:11.112Z,2.33
2023-04-15T14:34:39.258Z,2.50
2023-04-15T14:37:06.238Z,2.50
2023-04-15T14:39:33.006Z,2.40
2023-04-15T14:41:59.636Z,2.80
2023-04-15T14:44:26.257Z,3.15
2023-04-15T14:46:53.006Z,3.08
2023-04-15T14:49:19.927Z,3.00
2023-04-15T14:51:46.713Z,3.42
2023-04-15T14:54:13.545Z,3.17
2023-04-15T14:56:40.288Z,2.65
2023-04-15T14:59:07.020Z,2.60
2023-04-15T15:01:34.341Z,2.58
2023-04-15T15:04:01.282Z,2.33
2023-04-15T15:06:28.092Z,2.63
2023-04-15T15:08:54.872Z,2.30
2023-04-15T15:11:21.894Z,2.92
2023-04-15T15:13:48.583Z,2.63
2023-04-15T15:16:15.282Z,2.40
2023-04-15T15:18:42.067Z,2.70
2023-04-15T15:21:08.813Z,2.53
2023-04-15T15:23:35.556Z,3.05
2023-04-15T15:30:56.618Z,2.35
2023-04-15T15:33:23.622Z,3.00
2023-04-15T15:35:50.882Z,3.55
2023-04-15T15:38:17.573Z,3.20
2023-04-15T15:40:44.222Z,3.30
2023-04-15T15:43:11.064Z,4.30
2023-04-15T15:45:37.832Z,3.10
2023-04-15T15:50:31.998Z,2.97
2023-04-15T15:52:58.982Z,2.90
2023-04-15T15:55:27.372Z,2.72
2023-04-15T15:57:54.566Z,2.60
2023-04-15T16:00:22.071Z,2.45
2023-04-15T16:03:06.042Z,2.50
2023-04-15T16:05:33.842Z,2.50
2023-04-15T16:08:00.550Z,2.63
2023-04-15T16:12:55.168Z,2.10
2023-04-15T16:17:50.443Z,2.80
2023-04-15T16:20:17.233Z,2.45
2023-04-15T16:22:43.887Z,2.58
2023-04-15T16:25:10.834Z,3.20
2023-04-15T16:30:22.250Z,3.38
2023-04-15T16:32:49.037Z,3.70
2023-04-15T16:35:17.032Z,3.47
2023-04-15T16:37:43.776Z,3.25
2023-04-15T16:45:04.978Z,3.70
2023-04-15T16:47:31.706Z,2.95
2023-04-15T16:49:58.456Z,2.70
2023-04-15T16:52:25.240Z,2.55
2023-04-15T16:54:52.115Z,2.78
2023-04-15T16:57:18.808Z,2.53
2023-04-15T16:59:45.586Z,2.80
2023-04-15T17:02:15.830Z,2.78
2023-04-15T17:04:42.645Z,3.13
2023-04-15T17:07:10.759Z,2.88
2023-04-15T17:09:38.841Z,3.17
2023-04-15T17:12:05.754Z,3.40
2023-04-15T17:14:32.896Z,3.88
2023-04-15T17:16:59.832Z,3.60
2023-04-15T17:19:27.667Z,3.20
2023-04-15T17:21:55.079Z,3.28
2023-04-15T17:24:22.020Z,3.38
2023-04-15T17:26:48.858Z,3.60
2023-04-15T17:29:15.595Z,3.40
2023-04-15T17:36:38.672Z,4.00
2023-04-15T17:39:05.419Z,3.83
2023-04-15T17:41:32.379Z,3.42
2023-04-15T17:43:59.016Z,3.55
2023-04-15T17:46:25.818Z,3.80
2023-04-15T17:48:52.506Z,4.50
2023-04-15T17:51:19.212Z,4.80
2023-04-15T17:53:46.039Z,4.28
2023-04-15T17:56:12.838Z,4.80
2023-04-15T17:58:39.620Z,4.72
2023-04-15T18:01:06.497Z,5.05
2023-04-15T18:03:33.365Z,4.93
2023-04-15T18:08:29.230Z,4.80
2023-04-15T18:10:56.515Z,6.35
2023-04-15T18:13:23.197Z,5.28
2023-04-15T18:15:51.569Z,5.22
2023-04-15T18:18:18.382Z,5.90
2023-04-15T18:20:45.049Z,4.72
2023-04-15T18:23:11.720Z,6.45
2023-04-15T18:25:38.651Z,7.90
2023-04-15T18:28:06.954Z,9.40
2023-04-15T18:30:33.641Z,9.13
2023-04-15T18:35:30.107Z,9.70
2023-04-15T18:37:59.832Z,9.48
2023-04-15T18:42:53.737Z,8.50
2023-04-15T18:48:04.829Z,7.43
2023-04-15T18:50:31.666Z,6.53
2023-04-15T18:55:25.578Z,9.88
2023-04-15T18:57:52.570Z,7.97
2023-04-15T19:00:19.469Z,6.00
2023-04-15T19:02:46.389Z,7.85
2023-04-15T19:05:13.286Z,6.47
2023-04-15T19:07:41.339Z,7.47
2023-04-15T19:10:08.358Z,10.30
2023-04-15T19:12:36.753Z,8.93
2023-04-15T19:15:04.142Z,9.13
2023-04-15T19:22:25.316Z,4.35
2023-04-15T19:27:19.098Z,5.85
2023-04-15T19:29:45.788Z,4.70
2023-04-15T19:32:14.217Z,4.38
2023-04-15T19:34:41.455Z,3.67
2023-04-15T19:37:08.316Z,4.43
2023-04-15T19:39:35.098Z,4.50
2023-04-15T19:42:03.143Z,4.65
2023-04-15T19:44:29.847Z,3.85
2023-04-15T19:46:56.856Z,4.40
2023-04-15T19:49:25.068Z,3.72
2023-04-15T19:51:51.840Z,4.72
2023-04-15T19:54:18.593Z,4.38
2023-04-15T19:56:45.329Z,3.80
2023-04-15T19:59:12.973Z,3.53
2023-04-15T20:04:07.224Z,4.40
2023-04-15T20:06:34.001Z,3.80
2023-04-15T20:12:45.581Z,3.10
2023-04-15T20:14:16.273Z,3.38
2023-04-15T20:16:43.259Z,3.13
2023-04-15T20:21:39.157Z,6.88
2023-04-15T20:24:06.180Z,6.53
2023-04-15T20:26:33.138Z,6.65
2023-04-15T20:29:00.398Z,6.00
2023-04-15T20:31:27.172Z,4.45
2023-04-15T20:33:53.980Z,16.08
2023-04-15T20:36:20.668Z,15.80
2023-04-15T20:38:47.305Z,12.13
2023-04-15T20:41:13.918Z,8.13
2023-04-15T20:46:17.757Z,5.25
2023-04-15T20:48:48.016Z,5.97
2023-04-15T20:51:15.322Z,4.90
2023-04-15T20:56:09.241Z,3.38
2023-04-15T20:58:36.450Z,4.32
2023-04-15T21:01:03.220Z,4.05
2023-04-15T21:03:30.268Z,3.60
2023-04-15T21:05:57.056Z,3.92
2023-04-15T21:10:56.657Z,4.18
2023-04-15T21:13:23.887Z,3.33
2023-04-15T21:15:53.529Z,3.13
2023-04-15T21:18:21.130Z,2.75
2023-04-15T21:20:55.608Z,5.20
2023-04-15T21:23:22.431Z,3.50
2023-04-15T21:25:49.181Z,6.78
2023-04-15T21:28:16.121Z,5.70
2023-04-15T21:30:42.720Z,6.63
2023-04-15T21:33:09.445Z,11.82
2023-04-15T21:35:36.450Z,16.90
2023-04-15T21:38:03.162Z,10.23
2023-04-15T21:42:59.313Z,3.83
2023-04-15T21:48:06.026Z,3.25
2023-04-15T21:50:38.379Z,3.88
2023-04-15T21:53:07.170Z,3.42
2023-04-15T21:55:33.916Z,3.13
2023-04-15T21:58:00.574Z,3.15
2023-04-15T22:02:54.706Z,3.20
2023-04-15T22:05:22.338Z,3.22
2023-04-15T22:12:43.150Z,3.47
2023-04-15T22:17:37.091Z,3.42
2023-04-15T22:20:03.825Z,3.00
2023-04-15T22:22:32.391Z,3.38
2023-04-15T22:25:10.454Z,3.15
2023-04-15T22:27:37.149Z,3.30
2023-04-15T22:32:31.265Z,3.83
2023-04-15T22:37:24.896Z,3.85
2023-04-15T22:39:52.108Z,4.70
2023-04-15T22:42:18.800Z,5.22
2023-04-15T22:49:39.651Z,4.40
2023-04-15T22:54:34.718Z,3.78
2023-04-15T22:57:03.092Z,2.92
2023-04-15T22:59:29.820Z,2.58
2023-04-15T23:01:58.163Z,2.70
2023-04-15T23:06:53.864Z,2.40
2023-04-15T23:09:21.136Z,2.45
2023-04-15T23:11:47.791Z,2.60
2023-04-15T23:16:41.500Z,2.70
2023-04-15T23:19:08.863Z,3.05
2023-04-15T23:21:35.759Z,2.45
2023-04-15T23:24:02.401Z,2.60
2023-04-15T23:26:29.016Z,2.70
2023-04-15T23:31:23.320Z,2.80
2023-04-15T23:33:50.093Z,2.40
2023-04-15T23:36:16.810Z,2.30
2023-04-15T23:38:43.561Z,2.20
2023-04-15T23:43:39.040Z,2.80
2023-04-15T23:46:05.841Z,2.30
2023-04-15T23:48:32.812Z,2.30
2023-04-15T23:50:59.635Z,2.30
2023-04-15T23:53:26.271Z,2.25
2023-04-15T23:55:52.941Z,2.25
2023-04-15T23:58:19.595Z,2.40
